createdAt,value
2022-08-19T00:02:02.831Z,8.33
2022-08-19T00:04:35.875Z,9.97
2022-08-19T00:07:04.810Z,9.53
2022-08-19T00:09:33.428Z,8.50
2022-08-19T00:12:03.212Z,8.73
2022-08-19T00:14:32.811Z,8.53
2022-08-19T00:17:03.962Z,8.17
2022-08-19T00:19:32.838Z,9.67
2022-08-19T00:22:01.229Z,9.03
2022-08-19T00:24:29.682Z,8.97
2022-08-19T00:26:58.348Z,10.20
2022-08-19T00:29:52.444Z,11.47
2022-08-19T00:32:21.736Z,11.50
2022-08-19T00:34:50.143Z,11.47
2022-08-19T00:37:19.004Z,15.70
2022-08-19T00:39:49.208Z,14.93
2022-08-19T00:42:17.560Z,16.80
2022-08-19T00:44:45.961Z,19.67
2022-08-19T00:47:16.239Z,18.23
2022-08-19T00:49:51.498Z,16.20
2022-08-19T00:52:23.170Z,17.70
2022-08-19T00:54:53.565Z,18.17
2022-08-19T00:57:28.042Z,18.40
2022-08-19T01:00:02.412Z,19.00
2022-08-19T01:02:34.200Z,20.07
2022-08-19T01:05:05.253Z,19.60
2022-08-19T01:07:37.901Z,20.07
2022-08-19T01:10:10.203Z,21.13
2022-08-19T01:12:39.294Z,19.93
2022-08-19T01:15:10.792Z,20.40
2022-08-19T01:17:42.452Z,19.10
2022-08-19T01:20:14.785Z,20.50
2022-08-19T01:22:47.085Z,19.00
2022-08-19T01:25:16.708Z,21.27
2022-08-19T01:27:48.439Z,19.13
2022-08-19T01:30:23.613Z,18.87
2022-08-19T01:32:52.530Z,20.93
2022-08-19T01:35:21.223Z,20.70
2022-08-19T01:37:53.437Z,20.87
2022-08-19T01:40:23.640Z,23.30
2022-08-19T01:42:53.653Z,23.10
2022-08-19T01:45:25.010Z,20.10
2022-08-19T01:48:01.756Z,17.57
2022-08-19T01:50:31.673Z,19.73
2022-08-19T01:53:06.565Z,20.00
2022-08-19T01:55:41.351Z,21.57
2022-08-19T01:58:14.092Z,20.70
2022-08-19T02:00:45.147Z,19.73
2022-08-19T02:03:14.051Z,22.50
2022-08-19T02:05:43.303Z,19.97
2022-08-19T02:08:13.174Z,21.63
2022-08-19T02:10:43.316Z,19.70
2022-08-19T02:13:12.436Z,21.17
2022-08-19T02:15:40.829Z,22.83
2022-08-19T02:18:09.792Z,23.00
2022-08-19T02:20:39.608Z,22.60
2022-08-19T02:23:13.637Z,22.10
2022-08-19T02:25:48.865Z,20.40
2022-08-19T02:28:18.894Z,20.43
2022-08-19T02:30:49.434Z,18.13
2022-08-19T02:33:18.199Z,20.17
2022-08-19T02:35:47.802Z,18.43
2022-08-19T02:38:29.108Z,18.07
2022-08-19T02:41:01.466Z,17.73
2022-08-19T02:43:33.705Z,20.00
2022-08-19T02:46:03.383Z,20.73
2022-08-19T02:48:33.808Z,19.40
2022-08-19T02:51:02.580Z,20.00
2022-08-19T02:53:31.502Z,21.30
2022-08-19T02:56:01.180Z,21.17
2022-08-19T02:58:29.625Z,21.17
2022-08-19T03:00:58.767Z,21.20
2022-08-19T03:03:27.401Z,21.10
2022-08-19T03:06:09.456Z,23.47
2022-08-19T03:08:39.089Z,21.40
2022-08-19T03:11:14.001Z,19.93
2022-08-19T03:13:44.106Z,22.80
2022-08-19T03:16:13.723Z,21.90
2022-08-19T03:18:41.953Z,20.10
2022-08-19T03:21:12.537Z,22.10
2022-08-19T03:23:41.104Z,22.20
2022-08-19T03:26:16.381Z,21.20
2022-08-19T03:28:47.682Z,19.97
2022-08-19T03:31:44.282Z,19.63
2022-08-19T03:34:12.601Z,20.17
2022-08-19T03:36:41.717Z,22.30
2022-08-19T03:39:10.313Z,23.07
2022-08-19T03:41:45.740Z,20.10
2022-08-19T03:44:16.992Z,22.07
2022-08-19T03:46:48.014Z,22.07
2022-08-19T03:49:18.103Z,23.67
2022-08-19T03:51:47.658Z,24.60
2022-08-19T03:54:17.212Z,24.10
2022-08-19T03:56:49.151Z,23.83
2022-08-19T03:59:21.186Z,23.93
2022-08-19T04:01:49.385Z,23.00
2022-08-19T04:04:17.545Z,23.67
2022-08-19T04:06:48.818Z,21.50
2022-08-19T04:09:17.401Z,22.77
2022-08-19T04:11:50.078Z,20.90
2022-08-19T04:14:21.004Z,22.10
2022-08-19T04:16:50.430Z,23.60
2022-08-19T04:19:20.342Z,21.43
2022-08-19T04:21:50.818Z,24.27
2022-08-19T04:24:19.207Z,23.93
2022-08-19T04:26:49.703Z,23.10
2022-08-19T04:29:22.988Z,23.37
2022-08-19T04:31:52.204Z,22.80
2022-08-19T04:34:24.274Z,24.70
2022-08-19T04:36:53.926Z,22.17
2022-08-19T04:39:45.541Z,23.37
2022-08-19T04:42:33.413Z,23.80
2022-08-19T04:45:01.861Z,22.33
2022-08-19T04:47:49.133Z,20.80
2022-08-19T04:50:22.517Z,21.57
2022-08-19T04:52:52.641Z,20.67
2022-08-19T04:55:21.190Z,20.07
2022-08-19T04:57:51.693Z,20.67
2022-08-19T05:00:20.130Z,21.47
2022-08-19T05:02:50.178Z,20.80
2022-08-19T05:05:18.623Z,21.13
2022-08-19T05:07:46.912Z,20.00
2022-08-19T05:10:15.110Z,21.77
2022-08-19T05:12:43.306Z,20.30
2022-08-19T05:15:13.028Z,20.40
2022-08-19T05:18:02.115Z,20.23
2022-08-19T05:20:48.074Z,21.27
2022-08-19T05:23:22.154Z,23.27
2022-08-19T05:25:52.610Z,22.83
2022-08-19T05:28:21.289Z,20.23
2022-08-19T05:30:51.872Z,23.23
2022-08-19T05:33:21.058Z,20.87
2022-08-19T05:35:50.404Z,21.40
2022-08-19T05:38:19.327Z,22.60
2022-08-19T05:40:48.032Z,23.03
2022-08-19T05:43:17.389Z,22.50
2022-08-19T05:45:45.956Z,22.93
2022-08-19T05:48:18.371Z,22.20
2022-08-19T05:50:46.544Z,22.93
2022-08-19T05:53:17.390Z,22.80
2022-08-19T05:55:45.870Z,25.47
2022-08-19T05:58:14.178Z,25.50
2022-08-19T06:00:45.423Z,24.20
2022-08-19T06:03:14.900Z,22.27
2022-08-19T06:05:51.459Z,24.80
2022-08-19T06:08:34.522Z,24.50
2022-08-19T06:11:19.978Z,25.23
2022-08-19T06:13:52.046Z,25.30
2022-08-19T06:16:28.729Z,25.00
2022-08-19T06:18:59.210Z,23.23
2022-08-19T06:21:29.652Z,25.13
2022-08-19T06:23:59.052Z,25.80
2022-08-19T06:26:28.542Z,25.93
2022-08-19T06:28:57.174Z,24.80
2022-08-19T06:31:30.246Z,24.33
2022-08-19T06:34:00.100Z,26.70
2022-08-19T06:36:32.648Z,26.00
2022-08-19T06:39:01.911Z,26.20
2022-08-19T06:41:31.733Z,26.07
2022-08-19T06:44:00.147Z,27.77
2022-08-19T06:46:29.699Z,28.17
2022-08-19T06:49:03.060Z,26.67
2022-08-19T06:54:03.051Z,28.53
2022-08-19T06:56:35.580Z,27.17
2022-08-19T06:59:07.071Z,28.30
2022-08-19T07:01:38.431Z,30.07
2022-08-19T07:04:12.120Z,33.37
2022-08-19T07:06:44.278Z,27.83
2022-08-19T07:09:18.247Z,29.13
2022-08-19T07:11:48.209Z,28.03
2022-08-19T07:14:19.833Z,28.63
2022-08-19T07:16:50.146Z,27.53
2022-08-19T07:19:22.090Z,29.10
2022-08-19T07:21:53.765Z,29.87
2022-08-19T07:24:25.348Z,29.37
2022-08-19T07:26:55.228Z,28.07
2022-08-19T07:29:25.847Z,29.30
2022-08-19T07:32:00.201Z,30.17
2022-08-19T07:34:32.435Z,28.77
2022-08-19T07:37:00.631Z,27.87
2022-08-19T07:39:32.391Z,28.17
2022-08-19T07:42:03.188Z,26.80
2022-08-19T07:44:31.462Z,27.80
2022-08-19T07:47:01.069Z,26.20
2022-08-19T07:49:30.610Z,26.43
2022-08-19T07:52:02.285Z,25.57
2022-08-19T07:54:35.178Z,23.80
2022-08-19T07:57:04.520Z,24.00
2022-08-19T07:59:32.959Z,25.43
2022-08-19T08:02:01.751Z,25.00
2022-08-19T08:04:58.818Z,23.90
2022-08-19T08:07:46.314Z,24.10
2022-08-19T08:10:20.678Z,24.60
2022-08-19T08:13:08.581Z,22.77
2022-08-19T08:15:42.696Z,24.43
2022-08-19T08:18:11.557Z,23.10
2022-08-19T08:20:41.145Z,24.20
2022-08-19T08:23:26.480Z,23.60
2022-08-19T08:25:57.582Z,21.90
2022-08-19T08:28:29.634Z,23.67
2022-08-19T08:30:59.889Z,22.50
2022-08-19T08:33:34.861Z,22.90
2022-08-19T08:36:07.440Z,23.30
2022-08-19T08:38:39.833Z,22.50
2022-08-19T08:41:21.317Z,22.90
2022-08-19T08:43:52.794Z,22.77
2022-08-19T08:46:31.133Z,24.07
2022-08-19T08:49:06.726Z,24.80
2022-08-19T08:54:17.747Z,23.40
2022-08-19T08:56:46.866Z,22.30
2022-08-19T08:59:22.036Z,21.33
2022-08-19T09:01:50.347Z,20.10
2022-08-19T09:04:18.893Z,21.27
2022-08-19T09:06:54.470Z,20.97
2022-08-19T09:09:32.103Z,20.60
2022-08-19T09:12:11.778Z,18.37
2022-08-19T09:14:51.582Z,17.60
2022-08-19T09:17:31.581Z,16.70
2022-08-19T09:20:05.729Z,19.83
2022-08-19T09:22:40.263Z,21.57
2022-08-19T09:25:11.346Z,18.90
2022-08-19T09:27:42.793Z,20.73
2022-08-19T09:30:16.976Z,20.43
2022-08-19T09:32:46.291Z,20.60
2022-08-19T09:35:16.423Z,21.47
2022-08-19T09:37:46.427Z,22.47
2022-08-19T09:40:15.582Z,23.10
2022-08-19T09:42:50.017Z,21.53
2022-08-19T09:45:21.798Z,22.10
2022-08-19T09:47:52.138Z,20.90
2022-08-19T09:50:24.526Z,19.70
2022-08-19T09:52:58.022Z,18.47
2022-08-19T09:55:31.171Z,20.33
2022-08-19T09:57:59.665Z,21.00
2022-08-19T10:00:27.853Z,20.10
2022-08-19T10:02:56.044Z,21.20
2022-08-19T10:05:42.713Z,20.73
2022-08-19T10:08:13.296Z,22.20
2022-08-19T10:10:46.568Z,20.87
2022-08-19T10:13:16.923Z,21.67
2022-08-19T10:15:47.961Z,21.47
2022-08-19T10:18:19.462Z,23.27
2022-08-19T10:20:51.797Z,25.00
2022-08-19T10:23:23.093Z,23.20
2022-08-19T10:25:54.497Z,23.70
2022-08-19T10:28:23.984Z,25.00
2022-08-19T10:30:52.198Z,24.60
2022-08-19T10:33:38.473Z,25.07
2022-08-19T10:36:11.535Z,23.50
2022-08-19T10:38:47.508Z,25.30
2022-08-19T10:41:24.333Z,25.57
2022-08-19T10:43:53.438Z,27.87
2022-08-19T10:46:23.813Z,25.83
2022-08-19T10:48:54.232Z,27.47
2022-08-19T10:51:47.831Z,27.10
2022-08-19T10:54:31.133Z,26.60
2022-08-19T10:57:00.596Z,26.67
2022-08-19T10:59:35.752Z,24.43
2022-08-19T11:02:06.201Z,27.33
2022-08-19T11:04:35.752Z,24.30
2022-08-19T11:07:05.697Z,25.83
2022-08-19T11:09:40.772Z,25.23
2022-08-19T11:12:10.506Z,27.37
2022-08-19T11:14:39.851Z,27.53
2022-08-19T11:17:08.233Z,28.20
2022-08-19T11:19:36.717Z,26.00
2022-08-19T11:22:05.114Z,25.53
2022-08-19T11:24:35.455Z,28.63
2022-08-19T11:27:07.185Z,27.17
2022-08-19T11:29:35.771Z,25.63
2022-08-19T11:32:07.142Z,27.00
2022-08-19T11:34:36.345Z,26.90
2022-08-19T11:37:06.736Z,28.13
2022-08-19T11:39:38.185Z,24.33
2022-08-19T11:42:28.931Z,25.57
2022-08-19T11:44:57.400Z,27.27
2022-08-19T11:47:27.168Z,26.10
2022-08-19T11:49:55.448Z,25.07
2022-08-19T11:52:24.181Z,26.10
2022-08-19T11:54:53.706Z,26.10
2022-08-19T11:57:22.011Z,28.03
2022-08-19T11:59:53.546Z,27.80
2022-08-19T12:02:22.885Z,30.40
2022-08-19T12:04:51.199Z,28.63
2022-08-19T12:07:19.794Z,25.40
2022-08-19T12:09:48.632Z,26.03
2022-08-19T12:12:18.843Z,24.83
2022-08-19T12:14:47.546Z,27.57
2022-08-19T12:17:16.206Z,27.27
2022-08-19T12:19:44.505Z,26.67
2022-08-19T12:22:13.292Z,27.17
2022-08-19T12:24:41.483Z,25.67
2022-08-19T12:27:12.583Z,25.30
2022-08-19T12:29:42.645Z,26.27
2022-08-19T12:32:12.025Z,24.73
2022-08-19T12:34:41.103Z,24.73
2022-08-19T12:37:09.605Z,25.67
2022-08-19T12:39:40.523Z,25.30
2022-08-19T12:42:09.341Z,24.63
2022-08-19T12:44:38.384Z,24.90
2022-08-19T12:47:12.584Z,24.97
2022-08-19T12:49:54.544Z,24.60
2022-08-19T12:52:25.791Z,22.23
2022-08-19T12:54:56.040Z,24.10
2022-08-19T12:57:32.792Z,23.17
2022-08-19T13:00:05.255Z,23.27
2022-08-19T13:02:37.165Z,23.10
2022-08-19T13:05:10.248Z,22.50
2022-08-19T13:07:39.484Z,22.10
2022-08-19T13:10:09.895Z,24.70
2022-08-19T13:12:38.259Z,25.10
2022-08-19T13:15:11.202Z,22.60
2022-08-19T13:17:42.063Z,22.20
2022-08-19T13:20:12.255Z,21.93
2022-08-19T13:22:40.844Z,20.90
2022-08-19T13:25:10.222Z,21.63
2022-08-19T13:27:39.677Z,20.93
2022-08-19T13:30:28.394Z,20.70
2022-08-19T13:33:15.390Z,19.83
2022-08-19T13:35:47.963Z,19.47
2022-08-19T13:38:18.497Z,20.57
2022-08-19T13:40:47.672Z,21.20
2022-08-19T13:43:22.536Z,15.87
2022-08-19T13:45:53.649Z,16.27
2022-08-19T13:48:24.543Z,16.37
2022-08-19T13:50:52.715Z,14.73
2022-08-19T13:53:20.942Z,14.23
2022-08-19T13:55:50.890Z,14.07
2022-08-19T13:58:19.449Z,14.10
2022-08-19T14:00:49.299Z,13.40
2022-08-19T14:03:17.610Z,13.23
2022-08-19T14:05:47.963Z,13.97
2022-08-19T14:08:16.179Z,14.10
2022-08-19T14:10:45.536Z,13.00
2022-08-19T14:13:16.742Z,14.20
2022-08-19T14:15:45.268Z,11.67
2022-08-19T14:18:13.642Z,13.10
2022-08-19T14:20:42.850Z,14.43
2022-08-19T14:23:13.206Z,13.40
2022-08-19T14:25:41.624Z,14.37
2022-08-19T14:28:09.865Z,13.10
2022-08-19T14:30:39.582Z,13.07
2022-08-19T14:33:09.268Z,13.63
2022-08-19T14:35:38.817Z,12.67
2022-08-19T14:38:09.062Z,14.27
2022-08-19T14:40:40.295Z,13.13
2022-08-19T14:43:08.622Z,14.23
2022-08-19T14:45:38.782Z,14.63
2022-08-19T14:48:18.900Z,14.13
2022-08-19T14:50:47.673Z,14.50
2022-08-19T14:53:18.172Z,14.93
2022-08-19T14:55:48.366Z,14.50
2022-08-19T14:58:29.621Z,15.30
2022-08-19T15:00:59.929Z,13.83
2022-08-19T15:03:28.276Z,14.83
2022-08-19T15:05:58.353Z,16.23
2022-08-19T15:08:27.611Z,13.97
2022-08-19T15:10:57.925Z,14.50
2022-08-19T15:13:27.741Z,13.87
2022-08-19T15:15:56.936Z,14.13
2022-08-19T15:18:25.131Z,13.53
2022-08-19T15:20:53.369Z,14.67
2022-08-19T15:23:22.890Z,14.30
2022-08-19T15:25:54.384Z,14.30
2022-08-19T15:28:24.502Z,13.67
2022-08-19T15:30:53.054Z,14.87
2022-08-19T15:33:21.564Z,14.13
2022-08-19T15:35:51.569Z,14.73
2022-08-19T15:38:22.333Z,14.67
2022-08-19T15:40:51.818Z,14.37
2022-08-19T15:43:22.467Z,14.40
2022-08-19T15:45:52.025Z,14.23
2022-08-19T15:48:20.201Z,13.87
2022-08-19T15:50:48.374Z,14.60
2022-08-19T15:53:17.209Z,13.83
2022-08-19T15:55:48.460Z,13.23
2022-08-19T15:58:34.710Z,13.20
2022-08-19T16:01:26.995Z,13.63
2022-08-19T16:04:16.014Z,13.57
2022-08-19T16:06:47.797Z,13.03
2022-08-19T16:09:17.210Z,13.50
2022-08-19T16:11:56.145Z,13.00
2022-08-19T16:14:26.085Z,11.73
2022-08-19T16:16:56.825Z,12.67
2022-08-19T16:19:26.130Z,13.00
2022-08-19T16:21:56.787Z,12.23
2022-08-19T16:24:27.119Z,13.10
2022-08-19T16:26:56.591Z,11.63
2022-08-19T16:29:34.747Z,13.07
2022-08-19T16:32:11.700Z,12.80
2022-08-19T16:34:41.577Z,12.30
2022-08-19T16:37:10.551Z,11.87
2022-08-19T16:39:39.746Z,12.67
2022-08-19T16:42:10.209Z,13.23
2022-08-19T16:44:41.563Z,13.57
2022-08-19T16:47:12.421Z,12.97
2022-08-19T16:49:53.123Z,12.00
2022-08-19T16:52:26.177Z,12.80
2022-08-19T16:54:54.645Z,12.67
2022-08-19T16:57:24.357Z,12.67
2022-08-19T16:59:52.805Z,13.20
2022-08-19T17:02:23.640Z,12.87
2022-08-19T17:04:59.250Z,12.27
2022-08-19T17:07:29.057Z,12.47
2022-08-19T17:09:57.892Z,12.33
2022-08-19T17:12:31.877Z,12.73
2022-08-19T17:15:02.152Z,12.03
2022-08-19T17:17:32.644Z,12.23
2022-08-19T17:20:02.462Z,12.43
2022-08-19T17:22:30.770Z,13.50
2022-08-19T17:24:59.015Z,12.57
2022-08-19T17:27:32.124Z,12.70
2022-08-19T17:30:02.460Z,12.53
2022-08-19T17:32:35.506Z,12.33
2022-08-19T17:35:04.990Z,12.63
2022-08-19T17:37:34.926Z,12.43
2022-08-19T17:40:03.984Z,12.67
2022-08-19T17:42:32.346Z,13.50
2022-08-19T17:45:00.950Z,11.90
2022-08-19T17:47:29.562Z,11.80
2022-08-19T17:49:59.262Z,13.27
2022-08-19T17:52:27.638Z,12.53
2022-08-19T17:54:56.387Z,12.70
2022-08-19T17:57:24.607Z,12.30
2022-08-19T17:59:52.892Z,12.77
2022-08-19T18:02:21.978Z,11.73
2022-08-19T18:04:50.689Z,11.50
2022-08-19T18:07:21.623Z,12.77
2022-08-19T18:09:52.763Z,12.37
2022-08-19T18:12:26.492Z,12.73
2022-08-19T18:14:54.709Z,14.27
2022-08-19T18:17:23.533Z,12.70
2022-08-19T18:19:51.726Z,12.63
2022-08-19T18:22:27.270Z,12.20
2022-08-19T18:24:56.348Z,11.43
2022-08-19T18:27:25.457Z,13.30
2022-08-19T18:29:56.639Z,13.30
2022-08-19T18:32:26.085Z,11.70
2022-08-19T18:34:56.151Z,12.97
2022-08-19T18:37:27.187Z,13.10
2022-08-19T18:40:13.170Z,13.60
2022-08-19T18:43:17.636Z,12.90
2022-08-19T18:46:04.289Z,13.17
2022-08-19T18:48:53.495Z,13.00
2022-08-19T18:51:25.260Z,12.93
2022-08-19T18:53:58.824Z,13.47
2022-08-19T18:56:32.218Z,14.63
2022-08-19T18:59:01.651Z,12.03
2022-08-19T19:01:32.831Z,11.93
2022-08-19T19:04:03.677Z,13.10
2022-08-19T19:06:35.809Z,13.47
2022-08-19T19:09:06.454Z,12.07
2022-08-19T19:11:37.901Z,13.03
2022-08-19T19:14:19.215Z,12.53
2022-08-19T19:17:01.990Z,14.03
2022-08-19T19:19:30.874Z,13.97
2022-08-19T19:22:01.015Z,11.97
2022-08-19T19:24:33.473Z,13.27
2022-08-19T19:27:06.657Z,12.27
2022-08-19T19:29:35.626Z,13.30
2022-08-19T19:32:04.138Z,13.33
2022-08-19T19:34:32.665Z,13.77
2022-08-19T19:37:00.840Z,13.07
2022-08-19T19:39:44.719Z,14.50
2022-08-19T19:42:20.026Z,13.20
2022-08-19T19:44:50.476Z,11.77
2022-08-19T19:47:19.956Z,14.83
2022-08-19T19:52:39.360Z,13.00
2022-08-19T19:55:09.480Z,13.37
2022-08-19T19:57:40.044Z,13.00
2022-08-19T20:00:09.949Z,12.57
2022-08-19T20:02:38.531Z,12.83
2022-08-19T20:05:07.202Z,14.80
2022-08-19T20:07:51.950Z,13.27
2022-08-19T20:10:21.565Z,14.50
2022-08-19T20:12:51.950Z,13.30
2022-08-19T20:15:20.490Z,15.20
2022-08-19T20:17:48.875Z,13.47
2022-08-19T20:20:19.134Z,13.30
2022-08-19T20:22:48.379Z,14.53
2022-08-19T20:25:18.567Z,14.00
2022-08-19T20:27:52.258Z,14.47
2022-08-19T20:30:23.241Z,13.67
2022-08-19T20:32:51.790Z,14.60
2022-08-19T20:35:22.158Z,13.40
2022-08-19T20:37:52.879Z,13.83
2022-08-19T20:40:24.362Z,13.70
2022-08-19T20:42:54.281Z,14.13
2022-08-19T20:45:32.784Z,14.03
2022-08-19T20:48:03.134Z,15.97
2022-08-19T20:50:32.135Z,13.83
2022-08-19T20:53:00.799Z,14.00
2022-08-19T20:55:30.481Z,14.00
2022-08-19T20:58:00.051Z,13.37
2022-08-19T21:00:29.374Z,14.73
2022-08-19T21:02:57.721Z,14.47
2022-08-19T21:05:30.275Z,13.57
2022-08-19T21:07:58.852Z,15.33
2022-08-19T21:10:27.502Z,15.93
2022-08-19T21:12:56.341Z,15.33
2022-08-19T21:15:25.921Z,15.00
2022-08-19T21:17:54.026Z,15.00
2022-08-19T21:20:22.211Z,15.17
2022-08-19T21:22:50.866Z,13.73
2022-08-19T21:25:19.296Z,14.10
2022-08-19T21:27:47.481Z,14.90
2022-08-19T21:30:15.750Z,14.60
2022-08-19T21:32:48.231Z,13.50
2022-08-19T21:35:19.653Z,14.60
2022-08-19T21:37:47.860Z,15.63
2022-08-19T21:40:16.664Z,14.30
2022-08-19T21:42:45.238Z,13.40
2022-08-19T21:45:14.839Z,15.87
2022-08-19T21:47:43.048Z,14.07
2022-08-19T21:50:13.821Z,13.77
2022-08-19T21:52:42.138Z,15.00
2022-08-19T21:55:12.209Z,15.10
2022-08-19T21:57:41.507Z,13.30
2022-08-19T22:00:15.532Z,13.83
2022-08-19T22:02:44.246Z,14.13
2022-08-19T22:05:14.160Z,14.80
2022-08-19T22:07:42.981Z,15.27
2022-08-19T22:10:12.362Z,14.90
2022-08-19T22:12:45.972Z,13.20
2022-08-19T22:15:22.117Z,14.40
2022-08-19T22:17:51.027Z,14.30
2022-08-19T22:20:23.122Z,12.50
2022-08-19T22:22:56.978Z,13.90
2022-08-19T22:25:31.470Z,13.90
2022-08-19T22:28:01.701Z,14.97
2022-08-19T22:30:33.139Z,15.40
2022-08-19T22:33:05.944Z,15.97
2022-08-19T22:35:38.415Z,13.20
2022-08-19T22:38:08.497Z,15.10
2022-08-19T22:40:39.805Z,14.60
2022-08-19T22:43:12.027Z,15.50
2022-08-19T22:45:40.264Z,15.60
2022-08-19T22:48:11.602Z,15.50
2022-08-19T22:50:43.833Z,15.10
2022-08-19T22:53:12.283Z,13.80
2022-08-19T22:55:40.453Z,15.50
2022-08-19T22:58:08.610Z,15.87
2022-08-19T23:00:36.825Z,15.73
2022-08-19T23:03:05.580Z,15.33
2022-08-19T23:05:33.833Z,15.37
2022-08-19T23:08:07.459Z,13.93
2022-08-19T23:10:35.706Z,16.07
2022-08-19T23:13:03.885Z,15.80
2022-08-19T23:15:33.341Z,15.13
2022-08-19T23:18:03.797Z,16.27
2022-08-19T23:20:35.606Z,16.03
2022-08-19T23:23:08.356Z,15.10
2022-08-19T23:25:38.275Z,16.97
2022-08-19T23:28:24.997Z,15.03
2022-08-19T23:30:54.549Z,15.00
2022-08-19T23:33:46.643Z,14.53
2022-08-19T23:36:19.077Z,13.67
2022-08-19T23:38:50.530Z,14.40
2022-08-19T23:41:21.303Z,13.70
2022-08-19T23:43:51.481Z,14.07
2022-08-19T23:46:27.416Z,15.40
2022-08-19T23:48:56.723Z,16.70
2022-08-19T23:51:26.714Z,15.17
2022-08-19T23:53:56.641Z,15.70
2022-08-19T23:56:24.843Z,15.73
2022-08-19T23:58:53.022Z,15.67
